Aeroporto :
LOGIN :

Iscrizione | Disclaimer

   EN    FR    IT 

 










Sommario :    VFR   VFR Marginale   IFR   IFR Intensivo   IFR Molto Intensivo
Visibilità : 
Base nubi : 
>= 8 km
>= 3000ft
5 / 8 km
1000 / 3000 ft
1500m / 5 km
500 / 1000 ft
800 / 1500m
200 / 500 ft
< 800m
< 200 ft
Simboli :   Temporali  Nebbia  Neve Forte  Precipitazioni Forti  Vento > 20 kt
SIGMETs :   Varie  Temporali  Ghiacco  Turbolenza  Onda orograficha  Ceneri Vulcaniche






- Altitudine del aeroporto : 2731 ft
- Codice IATA : LPY


LFHP - Le Puy Loudes

ULTIMO METAR :
  • 231900Z AUTO 25008KT 220V300 9999 FEW012 BKN037 BKN180 02/M02 Q0999

METARs OBSOLETI :
  • 231830Z AUTO 24012KT 210V280 9999 FEW016 SCT039 BKN140 03/M02 Q0999
  • 231800Z AUTO 24011KT 210V270 9999 SCT034 BKN041 BKN140 03/M02 Q0999
  • 231730Z AUTO 25009KT 210V290 9999 BKN031 BKN140 BKN170 03/M02 Q0999
  • 231700Z AUTO 24010KT 220V280 9999 FEW027 BKN070 03/M02 Q0998
  • 231630Z AUTO 24010KT 210V290 9999 BKN027 BKN034 BKN041 03/M01 Q0999
  • 231600Z AUTO 24010KT 190V300 9999 BKN028 BKN037 BKN052 04/M02 Q0999
  • 231530Z AUTO 25010KT 210V290 9999 FEW017 SCT029 BKN034 05/M00 Q0999

Previsioni scadute.



MetMap, La meteo Aeronautica in un colpo d'occhio ! - Copyright ORBIFLY Dicembre 2007 - Disclaimer

ORBIFLY MET'MAP TEAM :

Programmazione e sviluppo : Alexandra Zaïnal
Concezione : Baudouin d'Aumeries
Supporto tecnico e logistico : Manuel Goepfert
Aiuto : Marc-Olivier Méhu
Aiuto per la traduzione : Arnaldo La Scala




FONTI E CREDITI :

   NOAA